sensor_id;sensor_type;location;lat;lon;timestamp;P1;durP1;ratioP1;P2;durP2;ratioP2
66626;SDS011;53498;50.422;14.912;2024-01-30T00:01:19;18.38;;;10.45;;
66626;SDS011;53498;50.422;14.912;2024-01-30T00:03:48;20.17;;;10.95;;
66626;SDS011;53498;50.422;14.912;2024-01-30T00:06:18;17.98;;;10.90;;
66626;SDS011;53498;50.422;14.912;2024-01-30T00:08:44;23.80;;;11.48;;
66626;SDS011;53498;50.422;14.912;2024-01-30T00:11:11;20.77;;;10.68;;
66626;SDS011;53498;50.422;14.912;2024-01-30T00:13:37;27.05;;;13.57;;
66626;SDS011;53498;50.422;14.912;2024-01-30T00:16:02;22.38;;;12.88;;
66626;SDS011;53498;50.422;14.912;2024-01-30T00:18:29;25.60;;;11.80;;
66626;SDS011;53498;50.422;14.912;2024-01-30T00:20:54;21.65;;;11.13;;
66626;SDS011;53498;50.422;14.912;2024-01-30T00:23:20;24.55;;;11.10;;
66626;SDS011;53498;50.422;14.912;2024-01-30T00:25:45;25.63;;;11.85;;
66626;SDS011;53498;50.422;14.912;2024-01-30T00:28:11;20.38;;;11.32;;
66626;SDS011;53498;50.422;14.912;2024-01-30T00:30:37;22.23;;;12.18;;
66626;SDS011;53498;50.422;14.912;2024-01-30T00:33:02;20.85;;;11.13;;
66626;SDS011;53498;50.422;14.912;2024-01-30T00:35:28;23.35;;;11.00;;
66626;SDS011;53498;50.422;14.912;2024-01-30T00:37:55;21.02;;;12.18;;
66626;SDS011;53498;50.422;14.912;2024-01-30T00:40:20;19.55;;;12.00;;
66626;SDS011;53498;50.422;14.912;2024-01-30T00:42:46;20.98;;;11.02;;
66626;SDS011;53498;50.422;14.912;2024-01-30T00:45:12;20.52;;;12.30;;
66626;SDS011;53498;50.422;14.912;2024-01-30T00:47:41;22.90;;;11.02;;
66626;SDS011;53498;50.422;14.912;2024-01-30T00:50:07;22.55;;;13.32;;
66626;SDS011;53498;50.422;14.912;2024-01-30T00:52:33;19.08;;;11.23;;
66626;SDS011;53498;50.422;14.912;2024-01-30T00:54:59;22.30;;;10.73;;
66626;SDS011;53498;50.422;14.912;2024-01-30T00:57:25;20.33;;;11.48;;
66626;SDS011;53498;50.422;14.912;2024-01-30T00:59:52;24.98;;;11.98;;
66626;SDS011;53498;50.422;14.912;2024-01-30T01:02:18;25.50;;;11.82;;
66626;SDS011;53498;50.422;14.912;2024-01-30T01:04:44;18.75;;;10.85;;
66626;SDS011;53498;50.422;14.912;2024-01-30T01:07:10;21.23;;;9.63;;
66626;SDS011;53498;50.422;14.912;2024-01-30T01:09:36;23.20;;;11.57;;
66626;SDS011;53498;50.422;14.912;2024-01-30T01:12:02;24.30;;;12.25;;
66626;SDS011;53498;50.422;14.912;2024-01-30T01:14:28;20.75;;;10.90;;
66626;SDS011;53498;50.422;14.912;2024-01-30T01:16:54;25.67;;;11.20;;
66626;SDS011;53498;50.422;14.912;2024-01-30T01:19:19;20.33;;;11.15;;
66626;SDS011;53498;50.422;14.912;2024-01-30T01:21:45;17.65;;;10.85;;
66626;SDS011;53498;50.422;14.912;2024-01-30T01:24:10;21.05;;;10.90;;
66626;SDS011;53498;50.422;14.912;2024-01-30T01:26:36;22.45;;;11.82;;
66626;SDS011;53498;50.422;14.912;2024-01-30T01:29:02;22.45;;;11.45;;
66626;SDS011;53498;50.422;14.912;2024-01-30T01:31:38;22.85;;;10.60;;
66626;SDS011;53498;50.422;14.912;2024-01-30T01:34:11;22.80;;;11.68;;
66626;SDS011;53498;50.422;14.912;2024-01-30T01:36:37;23.33;;;10.05;;
66626;SDS011;53498;50.422;14.912;2024-01-30T01:39:03;18.92;;;10.10;;
66626;SDS011;53498;50.422;14.912;2024-01-30T01:41:29;16.77;;;9.27;;
66626;SDS011;53498;50.422;14.912;2024-01-30T01:43:58;22.88;;;12.55;;
66626;SDS011;53498;50.422;14.912;2024-01-30T01:46:26;19.85;;;9.77;;
66626;SDS011;53498;50.422;14.912;2024-01-30T01:48:52;19.42;;;9.52;;
66626;SDS011;53498;50.422;14.912;2024-01-30T01:51:19;21.27;;;10.07;;
66626;SDS011;53498;50.422;14.912;2024-01-30T01:53:45;22.10;;;11.00;;
66626;SDS011;53498;50.422;14.912;2024-01-30T01:56:11;18.15;;;10.77;;
66626;SDS011;53498;50.422;14.912;2024-01-30T01:58:37;22.17;;;10.52;;
66626;SDS011;53498;50.422;14.912;2024-01-30T02:01:03;17.15;;;10.10;;
66626;SDS011;53498;50.422;14.912;2024-01-30T02:03:30;19.73;;;9.38;;
66626;SDS011;53498;50.422;14.912;2024-01-30T02:05:56;21.00;;;10.95;;
66626;SDS011;53498;50.422;14.912;2024-01-30T02:08:22;19.60;;;10.48;;
66626;SDS011;53498;50.422;14.912;2024-01-30T02:10:49;17.85;;;9.57;;
66626;SDS011;53498;50.422;14.912;2024-01-30T02:13:15;21.63;;;11.05;;
66626;SDS011;53498;50.422;14.912;2024-01-30T02:15:40;18.55;;;9.43;;
66626;SDS011;53498;50.422;14.912;2024-01-30T02:18:06;32.10;;;17.35;;
66626;SDS011;53498;50.422;14.912;2024-01-30T02:20:32;22.90;;;11.77;;
66626;SDS011;53498;50.422;14.912;2024-01-30T02:23:00;24.55;;;12.45;;
66626;SDS011;53498;50.422;14.912;2024-01-30T02:25:30;18.80;;;10.82;;
66626;SDS011;53498;50.422;14.912;2024-01-30T02:27:56;59.00;;;25.80;;
66626;SDS011;53498;50.422;14.912;2024-01-30T02:30:23;34.38;;;14.48;;
66626;SDS011;53498;50.422;14.912;2024-01-30T02:32:48;20.90;;;10.48;;
66626;SDS011;53498;50.422;14.912;2024-01-30T02:35:14;21.08;;;10.52;;
66626;SDS011;53498;50.422;14.912;2024-01-30T02:37:39;21.83;;;11.40;;
66626;SDS011;53498;50.422;14.912;2024-01-30T02:40:05;19.00;;;10.52;;
66626;SDS011;53498;50.422;14.912;2024-01-30T02:42:31;19.13;;;10.85;;
66626;SDS011;53498;50.422;14.912;2024-01-30T02:44:57;19.70;;;10.57;;
66626;SDS011;53498;50.422;14.912;2024-01-30T02:47:22;18.15;;;10.82;;
66626;SDS011;53498;50.422;14.912;2024-01-30T02:49:48;16.98;;;9.98;;
66626;SDS011;53498;50.422;14.912;2024-01-30T02:52:13;22.30;;;10.60;;
66626;SDS011;53498;50.422;14.912;2024-01-30T02:54:39;17.52;;;9.85;;
66626;SDS011;53498;50.422;14.912;2024-01-30T02:57:04;21.38;;;9.98;;
66626;SDS011;53498;50.422;14.912;2024-01-30T02:59:30;20.52;;;10.98;;
66626;SDS011;53498;50.422;14.912;2024-01-30T03:01:58;20.35;;;12.07;;
66626;SDS011;53498;50.422;14.912;2024-01-30T03:04:24;21.50;;;10.43;;
66626;SDS011;53498;50.422;14.912;2024-01-30T03:06:50;16.33;;;9.50;;
66626;SDS011;53498;50.422;14.912;2024-01-30T03:09:18;17.40;;;9.95;;
66626;SDS011;53498;50.422;14.912;2024-01-30T03:11:44;21.40;;;10.77;;
66626;SDS011;53498;50.422;14.912;2024-01-30T03:14:09;21.63;;;12.35;;
66626;SDS011;53498;50.422;14.912;2024-01-30T03:16:38;17.38;;;10.27;;
66626;SDS011;53498;50.422;14.912;2024-01-30T03:19:05;23.55;;;11.93;;
66626;SDS011;53498;50.422;14.912;2024-01-30T03:21:33;17.13;;;10.35;;
66626;SDS011;53498;50.422;14.912;2024-01-30T03:23:58;19.50;;;13.13;;
66626;SDS011;53498;50.422;14.912;2024-01-30T03:26:24;21.38;;;11.25;;
66626;SDS011;53498;50.422;14.912;2024-01-30T03:28:50;18.92;;;9.98;;
66626;SDS011;53498;50.422;14.912;2024-01-30T03:31:16;19.83;;;9.98;;
66626;SDS011;53498;50.422;14.912;2024-01-30T03:33:41;22.55;;;10.10;;
66626;SDS011;53498;50.422;14.912;2024-01-30T03:36:07;26.35;;;11.52;;
66626;SDS011;53498;50.422;14.912;2024-01-30T03:38:34;26.30;;;10.80;;
66626;SDS011;53498;50.422;14.912;2024-01-30T03:40:59;25.10;;;10.75;;
66626;SDS011;53498;50.422;14.912;2024-01-30T03:43:25;21.63;;;9.65;;
66626;SDS011;53498;50.422;14.912;2024-01-30T03:45:51;23.60;;;10.32;;
66626;SDS011;53498;50.422;14.912;2024-01-30T03:48:17;21.75;;;9.65;;
66626;SDS011;53498;50.422;14.912;2024-01-30T03:50:42;16.60;;;9.93;;
66626;SDS011;53498;50.422;14.912;2024-01-30T03:53:08;25.10;;;11.10;;
66626;SDS011;53498;50.422;14.912;2024-01-30T03:55:33;20.38;;;9.55;;
66626;SDS011;53498;50.422;14.912;2024-01-30T03:57:59;23.08;;;11.00;;
66626;SDS011;53498;50.422;14.912;2024-01-30T04:00:24;20.30;;;9.35;;
66626;SDS011;53498;50.422;14.912;2024-01-30T04:02:50;20.80;;;9.88;;
66626;SDS011;53498;50.422;14.912;2024-01-30T04:05:16;22.52;;;10.20;;
66626;SDS011;53498;50.422;14.912;2024-01-30T04:07:42;15.88;;;8.73;;
66626;SDS011;53498;50.422;14.912;2024-01-30T04:10:08;19.10;;;11.70;;
66626;SDS011;53498;50.422;14.912;2024-01-30T04:12:35;18.27;;;10.10;;
66626;SDS011;53498;50.422;14.912;2024-01-30T04:15:01;19.88;;;9.50;;
66626;SDS011;53498;50.422;14.912;2024-01-30T04:17:27;16.70;;;9.77;;
66626;SDS011;53498;50.422;14.912;2024-01-30T04:19:54;21.40;;;9.93;;
66626;SDS011;53498;50.422;14.912;2024-01-30T04:22:20;19.42;;;9.80;;
66626;SDS011;53498;50.422;14.912;2024-01-30T04:24:46;18.63;;;10.95;;
66626;SDS011;53498;50.422;14.912;2024-01-30T04:27:11;26.35;;;10.80;;
66626;SDS011;53498;50.422;14.912;2024-01-30T04:29:37;18.95;;;9.77;;
66626;SDS011;53498;50.422;14.912;2024-01-30T04:32:03;19.40;;;10.32;;
66626;SDS011;53498;50.422;14.912;2024-01-30T04:34:29;20.92;;;10.80;;
66626;SDS011;53498;50.422;14.912;2024-01-30T04:36:54;20.42;;;10.18;;
66626;SDS011;53498;50.422;14.912;2024-01-30T04:39:20;20.35;;;10.13;;
66626;SDS011;53498;50.422;14.912;2024-01-30T04:41:46;18.13;;;9.32;;
66626;SDS011;53498;50.422;14.912;2024-01-30T04:44:11;20.67;;;10.38;;
66626;SDS011;53498;50.422;14.912;2024-01-30T04:46:37;18.42;;;9.52;;
66626;SDS011;53498;50.422;14.912;2024-01-30T04:49:02;20.48;;;10.95;;
66626;SDS011;53498;50.422;14.912;2024-01-30T04:51:29;21.38;;;9.80;;
66626;SDS011;53498;50.422;14.912;2024-01-30T04:53:54;19.15;;;9.85;;
66626;SDS011;53498;50.422;14.912;2024-01-30T04:56:20;19.63;;;8.50;;
66626;SDS011;53498;50.422;14.912;2024-01-30T04:58:46;19.52;;;10.10;;
66626;SDS011;53498;50.422;14.912;2024-01-30T05:01:15;18.08;;;9.63;;
66626;SDS011;53498;50.422;14.912;2024-01-30T05:03:41;18.17;;;8.68;;
66626;SDS011;53498;50.422;14.912;2024-01-30T05:06:07;21.38;;;11.10;;
66626;SDS011;53498;50.422;14.912;2024-01-30T05:08:32;20.65;;;10.35;;
66626;SDS011;53498;50.422;14.912;2024-01-30T05:11:01;21.05;;;9.32;;
66626;SDS011;53498;50.422;14.912;2024-01-30T05:13:29;17.30;;;9.50;;
66626;SDS011;53498;50.422;14.912;2024-01-30T05:15:56;18.90;;;10.65;;
66626;SDS011;53498;50.422;14.912;2024-01-30T05:18:21;16.48;;;9.70;;
66626;SDS011;53498;50.422;14.912;2024-01-30T05:20:47;15.88;;;8.40;;
66626;SDS011;53498;50.422;14.912;2024-01-30T05:23:13;19.45;;;10.07;;
66626;SDS011;53498;50.422;14.912;2024-01-30T05:25:38;16.63;;;9.20;;
66626;SDS011;53498;50.422;14.912;2024-01-30T05:28:04;23.40;;;10.52;;
66626;SDS011;53498;50.422;14.912;2024-01-30T05:30:30;19.65;;;9.70;;
66626;SDS011;53498;50.422;14.912;2024-01-30T05:32:55;18.27;;;9.75;;
66626;SDS011;53498;50.422;14.912;2024-01-30T05:35:21;19.33;;;10.65;;
66626;SDS011;53498;50.422;14.912;2024-01-30T05:37:48;12.95;;;8.80;;
66626;SDS011;53498;50.422;14.912;2024-01-30T05:40:14;17.80;;;9.38;;
66626;SDS011;53498;50.422;14.912;2024-01-30T05:42:40;16.05;;;9.50;;
66626;SDS011;53498;50.422;14.912;2024-01-30T05:45:06;16.13;;;8.40;;
66626;SDS011;53498;50.422;14.912;2024-01-30T05:47:31;17.35;;;9.82;;
66626;SDS011;53498;50.422;14.912;2024-01-30T05:49:57;16.65;;;9.98;;
66626;SDS011;53498;50.422;14.912;2024-01-30T05:52:22;18.92;;;9.30;;
66626;SDS011;53498;50.422;14.912;2024-01-30T05:54:48;19.13;;;9.07;;
66626;SDS011;53498;50.422;14.912;2024-01-30T05:57:14;19.77;;;9.57;;
66626;SDS011;53498;50.422;14.912;2024-01-30T05:59:39;21.30;;;9.10;;
66626;SDS011;53498;50.422;14.912;2024-01-30T06:02:08;20.23;;;11.02;;
66626;SDS011;53498;50.422;14.912;2024-01-30T06:04:33;18.67;;;9.95;;
66626;SDS011;53498;50.422;14.912;2024-01-30T06:06:59;20.33;;;9.50;;
66626;SDS011;53498;50.422;14.912;2024-01-30T06:09:27;21.95;;;10.70;;
66626;SDS011;53498;50.422;14.912;2024-01-30T06:11:53;15.98;;;9.48;;
66626;SDS011;53498;50.422;14.912;2024-01-30T06:14:19;20.05;;;9.60;;
66626;SDS011;53498;50.422;14.912;2024-01-30T06:16:45;19.80;;;10.38;;
66626;SDS011;53498;50.422;14.912;2024-01-30T06:19:10;20.02;;;9.73;;
66626;SDS011;53498;50.422;14.912;2024-01-30T06:21:36;23.35;;;10.68;;
66626;SDS011;53498;50.422;14.912;2024-01-30T06:24:03;23.70;;;12.05;;
66626;SDS011;53498;50.422;14.912;2024-01-30T06:26:29;23.50;;;10.23;;
66626;SDS011;53498;50.422;14.912;2024-01-30T06:28:55;17.85;;;9.85;;
66626;SDS011;53498;50.422;14.912;2024-01-30T06:31:20;18.95;;;8.38;;
66626;SDS011;53498;50.422;14.912;2024-01-30T06:33:47;20.52;;;9.85;;
66626;SDS011;53498;50.422;14.912;2024-01-30T06:36:12;24.88;;;10.23;;
66626;SDS011;53498;50.422;14.912;2024-01-30T06:38:38;18.80;;;9.40;;
66626;SDS011;53498;50.422;14.912;2024-01-30T06:41:04;22.65;;;9.95;;
66626;SDS011;53498;50.422;14.912;2024-01-30T06:43:30;16.65;;;9.43;;
66626;SDS011;53498;50.422;14.912;2024-01-30T06:45:55;20.30;;;10.57;;
66626;SDS011;53498;50.422;14.912;2024-01-30T06:48:21;20.55;;;9.88;;
66626;SDS011;53498;50.422;14.912;2024-01-30T06:50:46;20.60;;;10.95;;
66626;SDS011;53498;50.422;14.912;2024-01-30T06:53:13;19.30;;;10.95;;
66626;SDS011;53498;50.422;14.912;2024-01-30T06:55:38;23.35;;;11.15;;
66626;SDS011;53498;50.422;14.912;2024-01-30T06:58:04;21.60;;;11.23;;
66626;SDS011;53498;50.422;14.912;2024-01-30T07:00:29;17.70;;;9.45;;
66626;SDS011;53498;50.422;14.912;2024-01-30T07:02:56;23.50;;;10.00;;
66626;SDS011;53498;50.422;14.912;2024-01-30T07:05:21;21.75;;;10.55;;
66626;SDS011;53498;50.422;14.912;2024-01-30T07:07:50;20.23;;;9.73;;
66626;SDS011;53498;50.422;14.912;2024-01-30T07:10:16;17.60;;;9.73;;
66626;SDS011;53498;50.422;14.912;2024-01-30T07:12:41;18.55;;;9.35;;
66626;SDS011;53498;50.422;14.912;2024-01-30T07:15:07;18.15;;;10.77;;
66626;SDS011;53498;50.422;14.912;2024-01-30T07:17:35;14.27;;;9.40;;
66626;SDS011;53498;50.422;14.912;2024-01-30T07:20:01;21.63;;;10.52;;
66626;SDS011;53498;50.422;14.912;2024-01-30T07:22:29;20.35;;;11.23;;
66626;SDS011;53498;50.422;14.912;2024-01-30T07:24:55;22.23;;;11.18;;
66626;SDS011;53498;50.422;14.912;2024-01-30T07:27:21;17.20;;;9.15;;
66626;SDS011;53498;50.422;14.912;2024-01-30T07:29:47;22.17;;;10.30;;
66626;SDS011;53498;50.422;14.912;2024-01-30T07:32:12;19.02;;;10.02;;
66626;SDS011;53498;50.422;14.912;2024-01-30T07:34:38;20.25;;;9.38;;
66626;SDS011;53498;50.422;14.912;2024-01-30T07:37:03;18.63;;;9.43;;
66626;SDS011;53498;50.422;14.912;2024-01-30T07:39:29;23.55;;;9.80;;
66626;SDS011;53498;50.422;14.912;2024-01-30T07:41:55;18.00;;;10.18;;
66626;SDS011;53498;50.422;14.912;2024-01-30T07:44:20;18.17;;;9.65;;
66626;SDS011;53498;50.422;14.912;2024-01-30T07:46:46;20.65;;;10.60;;
66626;SDS011;53498;50.422;14.912;2024-01-30T07:49:11;22.88;;;9.98;;
66626;SDS011;53498;50.422;14.912;2024-01-30T07:51:46;20.73;;;10.50;;
66626;SDS011;53498;50.422;14.912;2024-01-30T07:54:12;19.83;;;10.73;;
66626;SDS011;53498;50.422;14.912;2024-01-30T07:56:38;17.70;;;9.32;;
66626;SDS011;53498;50.422;14.912;2024-01-30T07:59:03;21.23;;;11.13;;
66626;SDS011;53498;50.422;14.912;2024-01-30T08:01:29;21.23;;;9.60;;
66626;SDS011;53498;50.422;14.912;2024-01-30T08:03:54;21.67;;;10.57;;
66626;SDS011;53498;50.422;14.912;2024-01-30T08:06:20;18.17;;;10.15;;
66626;SDS011;53498;50.422;14.912;2024-01-30T08:08:46;17.17;;;8.60;;
66626;SDS011;53498;50.422;14.912;2024-01-30T08:11:12;16.13;;;9.35;;
66626;SDS011;53498;50.422;14.912;2024-01-30T08:13:37;15.80;;;9.27;;
66626;SDS011;53498;50.422;14.912;2024-01-30T08:16:03;18.73;;;10.93;;
66626;SDS011;53498;50.422;14.912;2024-01-30T08:18:29;23.08;;;10.38;;
66626;SDS011;53498;50.422;14.912;2024-01-30T08:20:55;13.68;;;8.88;;
66626;SDS011;53498;50.422;14.912;2024-01-30T08:23:20;19.90;;;10.60;;
66626;SDS011;53498;50.422;14.912;2024-01-30T08:25:46;16.75;;;9.13;;
66626;SDS011;53498;50.422;14.912;2024-01-30T08:28:11;21.33;;;9.98;;
66626;SDS011;53498;50.422;14.912;2024-01-30T08:30:37;20.30;;;10.32;;
66626;SDS011;53498;50.422;14.912;2024-01-30T08:33:04;19.02;;;9.43;;
66626;SDS011;53498;50.422;14.912;2024-01-30T08:35:30;17.80;;;9.63;;
66626;SDS011;53498;50.422;14.912;2024-01-30T08:37:58;21.33;;;10.93;;
66626;SDS011;53498;50.422;14.912;2024-01-30T08:40:24;16.85;;;10.05;;
66626;SDS011;53498;50.422;14.912;2024-01-30T08:42:50;20.05;;;9.27;;
66626;SDS011;53498;50.422;14.912;2024-01-30T08:45:16;16.70;;;9.70;;
66626;SDS011;53498;50.422;14.912;2024-01-30T08:47:41;22.55;;;10.57;;
66626;SDS011;53498;50.422;14.912;2024-01-30T08:50:07;24.80;;;12.73;;
66626;SDS011;53498;50.422;14.912;2024-01-30T08:52:33;19.33;;;11.43;;
66626;SDS011;53498;50.422;14.912;2024-01-30T08:54:59;24.52;;;10.68;;
66626;SDS011;53498;50.422;14.912;2024-01-30T08:57:25;16.45;;;9.65;;
66626;SDS011;53498;50.422;14.912;2024-01-30T08:59:54;21.65;;;10.93;;
66626;SDS011;53498;50.422;14.912;2024-01-30T09:02:19;17.55;;;8.65;;
66626;SDS011;53498;50.422;14.912;2024-01-30T09:04:46;18.70;;;8.82;;
66626;SDS011;53498;50.422;14.912;2024-01-30T09:07:11;14.18;;;8.75;;
66626;SDS011;53498;50.422;14.912;2024-01-30T09:09:39;18.40;;;9.20;;
66626;SDS011;53498;50.422;14.912;2024-01-30T09:12:06;20.15;;;12.25;;
66626;SDS011;53498;50.422;14.912;2024-01-30T09:14:35;14.93;;;8.77;;
66626;SDS011;53498;50.422;14.912;2024-01-30T09:17:01;15.57;;;9.13;;
66626;SDS011;53498;50.422;14.912;2024-01-30T09:19:28;19.50;;;9.70;;
66626;SDS011;53498;50.422;14.912;2024-01-30T09:21:54;20.25;;;10.48;;
66626;SDS011;53498;50.422;14.912;2024-01-30T09:24:19;21.60;;;10.23;;
66626;SDS011;53498;50.422;14.912;2024-01-30T09:26:45;15.95;;;10.05;;
66626;SDS011;53498;50.422;14.912;2024-01-30T09:29:10;24.70;;;11.35;;
66626;SDS011;53498;50.422;14.912;2024-01-30T09:31:36;17.70;;;9.00;;
66626;SDS011;53498;50.422;14.912;2024-01-30T09:34:02;24.73;;;12.95;;
66626;SDS011;53498;50.422;14.912;2024-01-30T09:36:27;18.48;;;10.63;;
66626;SDS011;53498;50.422;14.912;2024-01-30T09:38:53;23.00;;;10.55;;
66626;SDS011;53498;50.422;14.912;2024-01-30T09:41:18;21.15;;;9.73;;
66626;SDS011;53498;50.422;14.912;2024-01-30T09:43:47;24.73;;;11.38;;
66626;SDS011;53498;50.422;14.912;2024-01-30T09:46:14;18.05;;;10.00;;
66626;SDS011;53498;50.422;14.912;2024-01-30T09:48:42;21.20;;;9.00;;
66626;SDS011;53498;50.422;14.912;2024-01-30T09:51:09;18.98;;;10.85;;
66626;SDS011;53498;50.422;14.912;2024-01-30T09:53:35;11.95;;;8.30;;
66626;SDS011;53498;50.422;14.912;2024-01-30T09:56:02;21.45;;;11.73;;
66626;SDS011;53498;50.422;14.912;2024-01-30T09:58:28;18.80;;;9.07;;
66626;SDS011;53498;50.422;14.912;2024-01-30T10:00:53;17.70;;;10.70;;
66626;SDS011;53498;50.422;14.912;2024-01-30T10:03:19;19.65;;;9.95;;
66626;SDS011;53498;50.422;14.912;2024-01-30T10:05:51;18.63;;;10.07;;
66626;SDS011;53498;50.422;14.912;2024-01-30T10:08:20;19.60;;;10.38;;
66626;SDS011;53498;50.422;14.912;2024-01-30T10:10:49;18.92;;;10.00;;
66626;SDS011;53498;50.422;14.912;2024-01-30T10:13:16;17.75;;;10.73;;
66626;SDS011;53498;50.422;14.912;2024-01-30T10:15:42;17.92;;;9.52;;
66626;SDS011;53498;50.422;14.912;2024-01-30T10:18:08;22.35;;;12.52;;
66626;SDS011;53498;50.422;14.912;2024-01-30T10:20:35;20.35;;;10.38;;
66626;SDS011;53498;50.422;14.912;2024-01-30T10:23:01;20.27;;;10.43;;
66626;SDS011;53498;50.422;14.912;2024-01-30T10:25:27;23.10;;;10.90;;
66626;SDS011;53498;50.422;14.912;2024-01-30T10:27:53;19.48;;;10.68;;
66626;SDS011;53498;50.422;14.912;2024-01-30T10:30:22;18.25;;;11.60;;
66626;SDS011;53498;50.422;14.912;2024-01-30T10:32:48;18.02;;;10.25;;
66626;SDS011;53498;50.422;14.912;2024-01-30T10:35:14;21.63;;;10.38;;
66626;SDS011;53498;50.422;14.912;2024-01-30T10:37:41;19.15;;;11.70;;
66626;SDS011;53498;50.422;14.912;2024-01-30T10:40:08;25.77;;;13.35;;
66626;SDS011;53498;50.422;14.912;2024-01-30T10:42:38;20.25;;;11.57;;
66626;SDS011;53498;50.422;14.912;2024-01-30T10:45:12;15.55;;;9.57;;
66626;SDS011;53498;50.422;14.912;2024-01-30T10:47:43;18.58;;;9.93;;
66626;SDS011;53498;50.422;14.912;2024-01-30T10:50:14;13.60;;;9.60;;
66626;SDS011;53498;50.422;14.912;2024-01-30T10:52:41;17.52;;;10.90;;
66626;SDS011;53498;50.422;14.912;2024-01-30T10:55:10;21.58;;;11.65;;
66626;SDS011;53498;50.422;14.912;2024-01-30T10:57:36;20.85;;;11.27;;
66626;SDS011;53498;50.422;14.912;2024-01-30T11:00:13;25.83;;;13.32;;
66626;SDS011;53498;50.422;14.912;2024-01-30T11:02:42;17.90;;;11.05;;
66626;SDS011;53498;50.422;14.912;2024-01-30T11:05:10;18.42;;;11.25;;
66626;SDS011;53498;50.422;14.912;2024-01-30T11:07:36;18.48;;;11.00;;
66626;SDS011;53498;50.422;14.912;2024-01-30T11:10:04;22.30;;;13.98;;
66626;SDS011;53498;50.422;14.912;2024-01-30T11:12:32;20.73;;;12.43;;
66626;SDS011;53498;50.422;14.912;2024-01-30T11:15:17;21.42;;;11.48;;
66626;SDS011;53498;50.422;14.912;2024-01-30T11:17:50;20.83;;;11.60;;
66626;SDS011;53498;50.422;14.912;2024-01-30T11:20:21;20.73;;;12.15;;
66626;SDS011;53498;50.422;14.912;2024-01-30T11:22:51;23.77;;;12.65;;
66626;SDS011;53498;50.422;14.912;2024-01-30T11:25:21;18.42;;;10.82;;
66626;SDS011;53498;50.422;14.912;2024-01-30T11:27:52;25.75;;;12.57;;
66626;SDS011;53498;50.422;14.912;2024-01-30T11:30:22;21.33;;;13.45;;
66626;SDS011;53498;50.422;14.912;2024-01-30T11:35:41;24.67;;;13.70;;
66626;SDS011;53498;50.422;14.912;2024-01-30T11:38:08;29.27;;;15.98;;
66626;SDS011;53498;50.422;14.912;2024-01-30T11:40:35;26.40;;;13.27;;
66626;SDS011;53498;50.422;14.912;2024-01-30T11:43:04;25.27;;;13.30;;
66626;SDS011;53498;50.422;14.912;2024-01-30T11:45:31;22.70;;;13.32;;
66626;SDS011;53498;50.422;14.912;2024-01-30T11:47:58;27.75;;;14.30;;
66626;SDS011;53498;50.422;14.912;2024-01-30T11:50:31;22.08;;;12.50;;
66626;SDS011;53498;50.422;14.912;2024-01-30T11:52:58;25.80;;;12.40;;
66626;SDS011;53498;50.422;14.912;2024-01-30T11:55:25;22.45;;;13.52;;
66626;SDS011;53498;50.422;14.912;2024-01-30T11:57:50;24.00;;;14.00;;
66626;SDS011;53498;50.422;14.912;2024-01-30T12:00:19;30.40;;;16.05;;
66626;SDS011;53498;50.422;14.912;2024-01-30T12:02:53;28.92;;;16.10;;
66626;SDS011;53498;50.422;14.912;2024-01-30T12:05:23;29.77;;;15.27;;
66626;SDS011;53498;50.422;14.912;2024-01-30T12:07:49;27.10;;;15.40;;
66626;SDS011;53498;50.422;14.912;2024-01-30T12:10:15;33.40;;;17.38;;
66626;SDS011;53498;50.422;14.912;2024-01-30T12:12:42;30.08;;;17.08;;
66626;SDS011;53498;50.422;14.912;2024-01-30T12:15:10;29.30;;;17.35;;
66626;SDS011;53498;50.422;14.912;2024-01-30T12:17:36;34.28;;;16.27;;
66626;SDS011;53498;50.422;14.912;2024-01-30T12:22:59;44.78;;;19.67;;
66626;SDS011;53498;50.422;14.912;2024-01-30T12:25:25;36.67;;;18.88;;
66626;SDS011;53498;50.422;14.912;2024-01-30T12:27:52;37.17;;;18.65;;
66626;SDS011;53498;50.422;14.912;2024-01-30T12:30:18;38.40;;;18.85;;
66626;SDS011;53498;50.422;14.912;2024-01-30T12:32:46;42.72;;;18.30;;
66626;SDS011;53498;50.422;14.912;2024-01-30T12:35:13;34.33;;;18.75;;
66626;SDS011;53498;50.422;14.912;2024-01-30T12:37:41;39.92;;;18.42;;
66626;SDS011;53498;50.422;14.912;2024-01-30T12:40:09;43.80;;;22.25;;
66626;SDS011;53498;50.422;14.912;2024-01-30T12:42:35;33.60;;;17.83;;
66626;SDS011;53498;50.422;14.912;2024-01-30T12:45:04;40.80;;;20.02;;
66626;SDS011;53498;50.422;14.912;2024-01-30T12:47:31;36.63;;;17.75;;
66626;SDS011;53498;50.422;14.912;2024-01-30T12:49:56;39.90;;;21.17;;
66626;SDS011;53498;50.422;14.912;2024-01-30T12:52:22;37.67;;;18.05;;
66626;SDS011;53498;50.422;14.912;2024-01-30T12:54:48;45.10;;;20.65;;
66626;SDS011;53498;50.422;14.912;2024-01-30T12:57:14;36.92;;;18.38;;
66626;SDS011;53498;50.422;14.912;2024-01-30T12:59:40;34.92;;;18.20;;
66626;SDS011;53498;50.422;14.912;2024-01-30T13:02:06;36.50;;;21.38;;
66626;SDS011;53498;50.422;14.912;2024-01-30T13:04:32;37.88;;;19.00;;
66626;SDS011;53498;50.422;14.912;2024-01-30T13:06:58;38.78;;;19.25;;
66626;SDS011;53498;50.422;14.912;2024-01-30T13:09:25;37.33;;;18.27;;
66626;SDS011;53498;50.422;14.912;2024-01-30T13:11:51;37.78;;;18.08;;
66626;SDS011;53498;50.422;14.912;2024-01-30T13:14:17;36.55;;;17.55;;
66626;SDS011;53498;50.422;14.912;2024-01-30T13:16:43;35.88;;;18.15;;
66626;SDS011;53498;50.422;14.912;2024-01-30T13:19:09;36.38;;;17.63;;
66626;SDS011;53498;50.422;14.912;2024-01-30T13:21:35;38.13;;;18.73;;
66626;SDS011;53498;50.422;14.912;2024-01-30T13:24:00;34.38;;;18.83;;
66626;SDS011;53498;50.422;14.912;2024-01-30T13:26:29;35.38;;;16.73;;
66626;SDS011;53498;50.422;14.912;2024-01-30T13:28:57;38.47;;;18.50;;
66626;SDS011;53498;50.422;14.912;2024-01-30T13:31:23;36.58;;;19.42;;
66626;SDS011;53498;50.422;14.912;2024-01-30T13:33:48;36.30;;;18.63;;
66626;SDS011;53498;50.422;14.912;2024-01-30T13:36:14;33.55;;;17.60;;
66626;SDS011;53498;50.422;14.912;2024-01-30T13:38:40;29.20;;;16.38;;
66626;SDS011;53498;50.422;14.912;2024-01-30T13:41:06;33.92;;;17.05;;
66626;SDS011;53498;50.422;14.912;2024-01-30T13:43:31;33.72;;;17.63;;
66626;SDS011;53498;50.422;14.912;2024-01-30T13:45:57;35.92;;;19.05;;
66626;SDS011;53498;50.422;14.912;2024-01-30T13:48:23;30.27;;;16.35;;
66626;SDS011;53498;50.422;14.912;2024-01-30T13:50:49;38.60;;;17.90;;
66626;SDS011;53498;50.422;14.912;2024-01-30T13:53:14;34.95;;;16.60;;
66626;SDS011;53498;50.422;14.912;2024-01-30T13:55:40;30.20;;;16.15;;
66626;SDS011;53498;50.422;14.912;2024-01-30T13:58:07;33.08;;;16.75;;
66626;SDS011;53498;50.422;14.912;2024-01-30T14:00:33;30.65;;;16.08;;
66626;SDS011;53498;50.422;14.912;2024-01-30T14:02:59;32.50;;;17.05;;
66626;SDS011;53498;50.422;14.912;2024-01-30T14:05:26;32.70;;;16.73;;
66626;SDS011;53498;50.422;14.912;2024-01-30T14:07:53;30.08;;;17.00;;
66626;SDS011;53498;50.422;14.912;2024-01-30T14:10:19;32.45;;;15.75;;
66626;SDS011;53498;50.422;14.912;2024-01-30T14:12:45;30.83;;;16.05;;
66626;SDS011;53498;50.422;14.912;2024-01-30T14:15:13;33.78;;;17.70;;